Seabrook, Maryland
Current Conditions -  °F | °C
As of 9:20 AM on Wednesday 28 Jan 2015 (Local Time) from KCGS Reporting Station
Clear Clear  
Wind Chill: 17°   Ceiling: Unl
Heat Index: 27°   Visibility: 10mi
Dew Point:   Wind: 9mph
Humidity: 47%   Direction: 320°NW
Pressure: 30.21"   Gusts: NA
Location:  38.9666°N, 76.8622°W
Report Text: KCGS 281420Z AUTO 32008KT 10SM CLR M03/M13 A3021 RMK AO1
Loading
Personal Weather Stations






























Interactive Weather Map New forecast layout! Learn more

10-Day Weather Forecast

Advertisements
Track Severe Weather on mobile